Time;durP1;ratioP1;P1;durP2;ratioP2;P2;SDS_P1;SDS_P2;PMS_P1;PMS_P2;Temp;Humidity;BMP_temperature;BMP_pressure;BME280_temperature;BME280_humidity;BME280_pressure;Samples;Min_cycle;Max_cycle;Signal;HPM_P1;HPM_P2
2023/08/07 00:00:38;;;;;;;2.97;1.02;;;21.90;99.90;;;;;;5104707;27;45281;-62
2023/08/07 00:03:05;;;;;;;2.00;0.82;;;21.90;99.90;;;;;;5104776;27;45176;-61
2023/08/07 00:05:31;;;;;;;1.77;0.75;;;21.90;99.90;;;;;;5105712;27;45093;-61
2023/08/07 00:07:58;;;;;;;3.47;0.93;;;21.90;99.90;;;;;;5102365;27;45256;-62
2023/08/07 00:10:25;;;;;;;1.75;0.77;;;21.90;99.90;;;;;;5102355;27;47966;-62
2023/08/07 00:12:52;;;;;;;3.78;1.30;;;21.90;99.90;;;;;;5102173;27;45294;-62
2023/08/07 00:15:19;;;;;;;2.63;0.80;;;21.90;99.90;;;;;;5102503;27;45289;-61
2023/08/07 00:17:47;;;;;;;2.47;0.80;;;21.90;99.90;;;;;;5102138;27;45170;-62
2023/08/07 00:20:14;;;;;;;2.53;0.85;;;21.90;99.90;;;;;;5102606;27;48209;-62
2023/08/07 00:22:41;;;;;;;2.42;0.90;;;21.90;99.80;;;;;;5104580;27;45280;-61
2023/08/07 00:25:09;;;;;;;3.95;1.10;;;21.90;99.80;;;;;;5104724;27;45280;-62
2023/08/07 00:27:36;;;;;;;1.45;0.93;;;21.90;99.80;;;;;;5106279;27;45358;-62
2023/08/07 00:30:02;;;;;;;3.10;0.77;;;21.90;99.90;;;;;;5105675;27;47154;-61
2023/08/07 00:32:29;;;;;;;2.65;0.93;;;21.90;99.80;;;;;;5106151;27;45264;-62
2023/08/07 00:34:57;;;;;;;1.63;0.75;;;21.90;99.80;;;;;;5107395;27;45266;-62
2023/08/07 00:37:24;;;;;;;2.53;0.90;;;21.90;99.80;;;;;;5107526;27;45125;-61
2023/08/07 00:39:51;;;;;;;1.50;0.63;;;21.90;99.70;;;;;;5105317;27;45370;-62
2023/08/07 00:42:18;;;;;;;2.17;1.05;;;21.80;99.90;;;;;;5104722;27;45235;-61
2023/08/07 00:44:44;;;;;;;1.75;0.63;;;21.80;99.70;;;;;;5106100;27;45278;-61
2023/08/07 00:47:12;;;;;;;2.60;0.82;;;21.90;99.60;;;;;;5106172;27;45185;-61
2023/08/07 00:49:39;;;;;;;1.88;0.70;;;21.90;99.70;;;;;;5104899;27;48048;-61
2023/08/07 00:52:08;;;;;;;2.60;0.80;;;21.90;99.60;;;;;;5105282;27;45252;-62
2023/08/07 00:54:35;;;;;;;2.70;1.08;;;21.90;99.70;;;;;;5115035;27;45264;-61
2023/08/07 00:57:11;;;;;;;2.03;0.70;;;21.90;99.70;;;;;;5122172;27;45348;-61
2023/08/07 00:59:39;;;;;;;2.05;0.90;;;21.90;99.70;;;;;;5105203;27;47005;-62
2023/08/07 01:02:06;;;;;;;1.15;0.65;;;21.90;99.60;;;;;;5105165;27;45235;-61
2023/08/07 01:04:33;;;;;;;3.35;0.90;;;21.90;99.50;;;;;;5105740;27;45225;-62
2023/08/07 01:07:00;;;;;;;3.00;0.90;;;21.90;99.80;;;;;;5105164;27;45124;-61
2023/08/07 01:09:28;;;;;;;3.53;0.88;;;21.90;99.70;;;;;;5105486;27;47276;-62
2023/08/07 01:12:02;;;;;;;1.50;0.80;;;21.90;99.40;;;;;;5123008;27;45382;-62
2023/08/07 01:14:37;;;;;;;4.68;1.08;;;21.90;99.40;;;;;;5111300;27;45263;-62
2023/08/07 01:17:09;;;;;;;2.15;0.73;;;21.90;99.70;;;;;;5112104;27;45225;-62
2023/08/07 01:19:36;;;;;;;1.90;0.90;;;21.90;99.30;;;;;;5110552;27;45386;-62
2023/08/07 01:22:08;;;;;;;2.97;1.00;;;21.90;99.40;;;;;;5104224;27;45272;-62
2023/08/07 01:24:35;;;;;;;2.45;1.10;;;21.90;99.30;;;;;;5105856;27;45400;-61
2023/08/07 01:27:16;;;;;;;2.80;1.15;;;21.90;99.50;;;;;;5105267;27;45187;-61
2023/08/07 01:29:51;;;;;;;3.05;1.20;;;21.90;99.40;;;;;;5105246;27;45278;-62
2023/08/07 01:32:29;;;;;;;1.67;0.75;;;21.90;99.70;;;;;;5105139;27;45221;-61
2023/08/07 01:34:58;;;;;;;2.97;1.20;;;21.90;99.30;;;;;;5104232;27;45130;-62
2023/08/07 01:37:28;;;;;;;1.92;1.10;;;21.90;99.30;;;;;;5105624;27;45335;-62
2023/08/07 01:39:57;;;;;;;2.90;1.00;;;21.90;99.60;;;;;;5104382;27;45280;-62
2023/08/07 01:42:24;;;;;;;3.50;0.80;;;21.90;99.60;;;;;;5112246;27;45201;-61
2023/08/07 01:44:51;;;;;;;2.78;0.80;;;21.90;99.60;;;;;;5108186;27;45105;-61
2023/08/07 01:47:18;;;;;;;3.70;1.10;;;21.90;99.50;;;;;;5105349;27;45139;-62
2023/08/07 01:49:44;;;;;;;1.58;0.80;;;21.90;99.70;;;;;;5105404;27;47166;-61
2023/08/07 01:52:12;;;;;;;2.78;1.10;;;21.90;99.50;;;;;;5104602;27;45205;-61
2023/08/07 01:54:40;;;;;;;2.33;0.80;;;21.90;99.80;;;;;;5104837;27;45115;-61
2023/08/07 01:57:07;;;;;;;2.05;0.93;;;21.90;99.50;;;;;;5104238;27;45357;-62
2023/08/07 01:59:34;;;;;;;2.70;1.15;;;21.90;99.80;;;;;;5103917;27;48445;-62
2023/08/07 02:02:01;;;;;;;2.83;1.10;;;21.90;99.50;;;;;;5104588;27;45281;-62
2023/08/07 02:04:27;;;;;;;1.83;0.88;;;21.90;99.50;;;;;;5105363;27;45306;-62
2023/08/07 02:06:54;;;;;;;2.30;0.90;;;21.90;99.50;;;;;;5105101;27;45266;-61
2023/08/07 02:09:21;;;;;;;1.70;0.90;;;21.90;99.60;;;;;;5104311;27;46015;-62
2023/08/07 02:11:50;;;;;;;2.08;0.90;;;21.90;99.80;;;;;;5103952;27;45166;-61
2023/08/07 02:14:16;;;;;;;2.08;0.90;;;21.90;99.80;;;;;;5104539;27;45316;-61
2023/08/07 02:16:43;;;;;;;3.08;0.90;;;21.90;99.80;;;;;;5112412;27;45166;-62
2023/08/07 02:19:10;;;;;;;4.22;1.15;;;21.90;99.60;;;;;;5104846;27;46211;-61
2023/08/07 02:21:37;;;;;;;2.88;0.98;;;21.90;99.40;;;;;;5104416;27;45191;-61
2023/08/07 02:24:04;;;;;;;1.75;0.88;;;21.90;99.40;;;;;;5105118;27;45216;-61
2023/08/07 02:26:30;;;;;;;2.67;1.15;;;21.90;99.20;;;;;;5104423;27;45444;-61
2023/08/07 02:28:59;;;;;;;2.95;0.82;;;21.90;99.10;;;;;;5103726;27;46204;-61
2023/08/07 02:31:25;;;;;;;2.97;0.90;;;21.90;99.50;;;;;;5104062;27;45348;-62
2023/08/07 02:33:52;;;;;;;2.75;1.05;;;21.90;99.60;;;;;;5104522;27;45135;-60
2023/08/07 02:36:19;;;;;;;1.77;0.98;;;21.80;99.20;;;;;;5104764;27;45137;-61
2023/08/07 02:38:46;;;;;;;3.00;0.93;;;21.80;99.30;;;;;;5103014;27;45200;-62
2023/08/07 02:41:12;;;;;;;2.08;0.90;;;21.80;99.20;;;;;;5103344;27;45275;-61
2023/08/07 02:43:39;;;;;;;2.20;0.80;;;21.90;99.10;;;;;;5104466;27;45200;-62
2023/08/07 02:46:07;;;;;;;1.48;0.70;;;21.90;99.10;;;;;;5104021;27;45370;-61
2023/08/07 02:48:34;;;;;;;4.22;1.10;;;21.90;98.80;;;;;;5102969;27;45184;-62
2023/08/07 02:51:01;;;;;;;2.13;1.00;;;21.90;99.20;;;;;;5103688;27;45205;-62
2023/08/07 02:53:27;;;;;;;0.98;0.70;;;21.90;98.90;;;;;;5103206;27;45060;-61
2023/08/07 02:55:54;;;;;;;3.88;0.85;;;21.90;99.20;;;;;;5104397;27;45217;-62
2023/08/07 02:58:21;;;;;;;2.95;1.00;;;21.90;99.20;;;;;;5103748;27;46253;-62
2023/08/07 03:00:48;;;;;;;2.05;1.00;;;21.90;99.20;;;;;;5102831;27;45240;-62
2023/08/07 03:03:16;;;;;;;1.73;0.90;;;21.90;99.00;;;;;;5103932;27;45321;-61
2023/08/07 03:05:50;;;;;;;1.65;0.65;;;21.90;99.20;;;;;;5104237;27;45297;-62
2023/08/07 03:08:17;;;;;;;3.13;1.05;;;21.90;99.30;;;;;;5103597;27;45305;-62
2023/08/07 03:10:50;;;;;;;2.80;1.08;;;21.90;99.10;;;;;;5102970;27;45187;-62
2023/08/07 03:13:16;;;;;;;1.50;1.05;;;21.90;99.40;;;;;;5103401;27;45066;-62
2023/08/07 03:15:43;;;;;;;1.83;0.90;;;21.90;99.10;;;;;;5111254;27;45163;-62
2023/08/07 03:18:10;;;;;;;1.73;0.77;;;21.90;99.00;;;;;;5101253;27;45232;-61
2023/08/07 03:20:38;;;;;;;3.08;1.00;;;21.90;99.40;;;;;;5100512;27;45633;-62
2023/08/07 03:23:05;;;;;;;4.85;1.20;;;21.90;99.10;;;;;;5101823;27;45189;-61
2023/08/07 03:25:32;;;;;;;2.30;1.10;;;21.90;99.00;;;;;;5108112;27;45082;-62
2023/08/07 03:27:59;;;;;;;2.88;0.85;;;21.90;99.20;;;;;;5102946;27;46523;-61
2023/08/07 03:30:25;;;;;;;2.72;0.98;;;21.90;99.10;;;;;;5102735;27;45205;-61
2023/08/07 03:32:52;;;;;;;3.33;1.00;;;21.90;99.10;;;;;;5102489;27;45263;-61
2023/08/07 03:35:19;;;;;;;1.80;0.90;;;21.90;99.10;;;;;;5103015;27;45360;-62
2023/08/07 03:37:47;;;;;;;2.85;1.30;;;21.90;99.00;;;;;;5102894;27;46360;-62
2023/08/07 03:40:14;;;;;;;4.35;1.50;;;21.80;99.10;;;;;;5094090;27;45245;-62
2023/08/07 03:42:41;;;;;;;3.00;1.08;;;21.80;99.20;;;;;;5102349;27;45162;-61
2023/08/07 03:45:09;;;;;;;2.30;0.90;;;21.80;98.90;;;;;;5102825;27;45126;-62
2023/08/07 03:47:35;;;;;;;3.05;1.08;;;21.80;99.20;;;;;;5103118;27;47145;-62
2023/08/07 03:50:02;;;;;;;2.65;0.98;;;21.80;98.90;;;;;;5102890;27;45108;-61
2023/08/07 03:52:29;;;;;;;1.33;0.73;;;21.80;98.90;;;;;;5102847;27;45180;-62
2023/08/07 03:54:57;;;;;;;2.20;0.80;;;21.80;98.80;;;;;;5103145;27;45248;-61
2023/08/07 03:57:24;;;;;;;3.20;1.17;;;21.80;98.80;;;;;;5101298;27;45280;-61
2023/08/07 03:59:50;;;;;;;2.00;0.88;;;21.80;99.30;;;;;;5104915;27;45277;-61
2023/08/07 04:02:17;;;;;;;3.40;1.05;;;21.80;99.20;;;;;;5105865;27;45240;-61
2023/08/07 04:04:44;;;;;;;3.00;1.00;;;21.80;98.80;;;;;;5106928;27;45327;-61
2023/08/07 04:07:11;;;;;;;2.47;1.20;;;21.80;98.80;;;;;;5106211;27;46100;-62
2023/08/07 04:09:37;;;;;;;4.35;0.93;;;21.80;98.70;;;;;;5106148;27;45122;-61
2023/08/07 04:12:06;;;;;;;1.48;0.80;;;21.80;98.70;;;;;;5106227;27;45113;-61
2023/08/07 04:14:33;;;;;;;3.03;0.80;;;21.80;98.60;;;;;;5105790;27;45504;-61
2023/08/07 04:17:00;;;;;;;4.13;0.85;;;21.80;98.80;;;;;;5104994;27;47010;-61
2023/08/07 04:19:27;;;;;;;3.42;0.80;;;21.80;98.90;;;;;;5106195;27;45265;-62
2023/08/07 04:21:54;;;;;;;2.10;0.98;;;21.80;98.70;;;;;;5105759;27;45301;-61
2023/08/07 04:24:21;;;;;;;2.38;0.90;;;21.80;98.70;;;;;;5106272;27;45292;-62
2023/08/07 04:26:48;;;;;;;1.55;0.95;;;21.80;98.80;;;;;;5106038;27;47199;-62
2023/08/07 04:29:16;;;;;;;1.52;0.90;;;21.80;99.00;;;;;;5109028;27;45399;-62
2023/08/07 04:31:43;;;;;;;2.42;0.90;;;21.80;98.90;;;;;;5098418;27;45398;-61
2023/08/07 04:34:10;;;;;;;1.77;0.98;;;21.80;98.80;;;;;;5105044;27;45368;-61
2023/08/07 04:36:37;;;;;;;3.00;1.20;;;21.80;98.70;;;;;;5102477;27;45525;-61
2023/08/07 04:39:03;;;;;;;1.90;0.95;;;21.80;98.90;;;;;;5105392;27;45134;-61
2023/08/07 04:41:30;;;;;;;3.25;0.95;;;21.80;98.80;;;;;;5101692;27;45310;-61
2023/08/07 04:43:57;;;;;;;4.18;1.02;;;21.80;98.80;;;;;;5106140;27;45292;-61
2023/08/07 04:46:25;;;;;;;2.42;0.95;;;21.80;99.10;;;;;;5105297;27;45200;-61
2023/08/07 04:48:52;;;;;;;2.30;0.90;;;21.80;98.60;;;;;;5105822;27;45345;-61
2023/08/07 04:51:19;;;;;;;2.05;0.85;;;21.80;98.40;;;;;;5113311;27;45242;-61
2023/08/07 04:53:46;;;;;;;2.78;1.00;;;21.80;99.00;;;;;;5106026;27;45249;-61
2023/08/07 04:56:12;;;;;;;2.25;0.98;;;21.80;98.90;;;;;;5101981;27;45223;-61
2023/08/07 04:58:39;;;;;;;1.33;0.85;;;21.80;98.70;;;;;;5105314;27;45445;-61
2023/08/07 05:01:06;;;;;;;1.90;0.93;;;21.80;98.90;;;;;;5107183;27;45280;-61
2023/08/07 05:03:34;;;;;;;2.85;1.00;;;21.80;98.70;;;;;;5120139;27;45449;-61
2023/08/07 05:06:02;;;;;;;1.33;0.90;;;21.80;98.70;;;;;;5103328;27;47020;-61
2023/08/07 05:08:29;;;;;;;5.40;1.15;;;21.80;98.50;;;;;;5105188;27;45490;-61
2023/08/07 05:10:55;;;;;;;2.05;0.90;;;21.90;98.60;;;;;;5102811;27;45182;-61
2023/08/07 05:13:22;;;;;;;2.05;0.90;;;21.80;98.90;;;;;;5101506;27;45202;-61
2023/08/07 05:15:49;;;;;;;3.70;1.10;;;21.80;98.90;;;;;;5102091;27;47957;-62
2023/08/07 05:18:17;;;;;;;2.20;1.08;;;21.80;98.90;;;;;;5102440;27;45203;-61
2023/08/07 05:20:45;;;;;;;2.53;1.10;;;21.80;98.70;;;;;;5097662;27;45354;-61
2023/08/07 05:23:11;;;;;;;1.08;0.80;;;21.80;98.90;;;;;;5105030;27;45356;-61
2023/08/07 05:25:38;;;;;;;1.42;0.90;;;21.90;98.90;;;;;;5109764;27;46302;-62
2023/08/07 05:28:06;;;;;;;3.40;1.00;;;21.90;99.00;;;;;;5106794;27;45161;-62
2023/08/07 05:30:32;;;;;;;2.15;1.10;;;21.80;98.90;;;;;;5108991;27;45184;-61
2023/08/07 05:32:59;;;;;;;2.53;0.93;;;21.90;99.00;;;;;;5105630;27;45085;-61
2023/08/07 05:35:26;;;;;;;2.20;0.95;;;21.90;99.10;;;;;;5106433;27;47319;-62
2023/08/07 05:37:54;;;;;;;1.92;1.00;;;21.90;99.00;;;;;;5104735;27;45220;-62
2023/08/07 05:40:21;;;;;;;3.20;1.08;;;21.90;99.00;;;;;;5103909;27;45272;-61
2023/08/07 05:42:48;;;;;;;2.00;1.00;;;21.90;99.40;;;;;;5108344;27;45023;-61
2023/08/07 05:45:15;;;;;;;1.98;0.93;;;21.90;99.00;;;;;;5106292;27;45317;-62
2023/08/07 05:47:42;;;;;;;2.70;0.90;;;21.90;99.00;;;;;;5104883;27;45227;-61
2023/08/07 05:50:09;;;;;;;1.55;0.90;;;21.90;99.00;;;;;;5106390;27;45295;-62
2023/08/07 05:52:36;;;;;;;1.70;1.00;;;21.90;99.40;;;;;;5109063;27;45268;-62
2023/08/07 05:55:05;;;;;;;1.90;0.90;;;21.90;99.00;;;;;;5106117;27;46039;-62
2023/08/07 05:57:31;;;;;;;1.83;0.93;;;21.90;99.00;;;;;;5097599;27;45692;-62
2023/08/07 05:59:58;;;;;;;7.63;1.48;;;21.90;99.00;;;;;;5102692;27;45193;-62
2023/08/07 06:02:26;;;;;;;2.70;1.20;;;21.90;99.40;;;;;;5103614;27;45255;-61
2023/08/07 06:04:54;;;;;;;1.58;0.93;;;21.90;99.00;;;;;;5100071;27;45296;-62
2023/08/07 06:07:20;;;;;;;1.63;0.98;;;21.90;99.00;;;;;;5103666;27;45176;-62
2023/08/07 06:09:47;;;;;;;2.60;1.17;;;21.90;99.00;;;;;;5102067;27;45169;-61
2023/08/07 06:12:15;;;;;;;1.95;0.90;;;21.90;99.00;;;;;;5103550;27;45172;-62
2023/08/07 06:14:43;;;;;;;3.42;1.00;;;21.90;99.00;;;;;;5105078;27;46378;-62
2023/08/07 06:17:09;;;;;;;2.25;0.95;;;21.90;99.00;;;;;;5110814;27;45232;-62
2023/08/07 06:19:36;;;;;;;1.98;1.20;;;21.90;98.90;;;;;;5103213;27;45315;-61
2023/08/07 06:22:03;;;;;;;3.40;1.10;;;21.90;98.80;;;;;;5097079;27;45446;-61
2023/08/07 06:24:30;;;;;;;3.00;1.00;;;21.90;98.70;;;;;;5097140;27;46288;-62
2023/08/07 06:26:57;;;;;;;1.92;1.17;;;21.90;98.70;;;;;;5100395;27;45330;-62
2023/08/07 06:29:25;;;;;;;3.42;1.20;;;21.90;98.80;;;;;;5098537;27;45334;-62
2023/08/07 06:31:52;;;;;;;2.72;0.90;;;21.90;98.80;;;;;;5095713;27;45158;-62
2023/08/07 06:34:18;;;;;;;1.80;0.90;;;21.90;98.80;;;;;;5102436;27;46291;-61
2023/08/07 06:36:45;;;;;;;1.27;0.90;;;21.90;98.70;;;;;;5100407;27;45221;-61
2023/08/07 06:39:12;;;;;;;2.42;1.13;;;21.90;98.70;;;;;;5099712;27;45165;-62
2023/08/07 06:41:39;;;;;;;3.45;1.20;;;21.90;98.70;;;;;;5103555;27;45135;-61
2023/08/07 06:44:06;;;;;;;3.50;1.17;;;21.90;98.80;;;;;;5103864;27;47156;-61
2023/08/07 06:46:34;;;;;;;1.73;1.00;;;21.90;98.90;;;;;;5103116;27;45331;-62
2023/08/07 06:49:01;;;;;;;2.17;0.90;;;21.90;98.90;;;;;;5100419;27;45387;-62
2023/08/07 06:51:27;;;;;;;2.28;1.10;;;21.90;98.90;;;;;;5117292;27;45204;-62
2023/08/07 06:53:54;;;;;;;2.33;1.00;;;21.90;98.80;;;;;;5104430;27;45259;-61
2023/08/07 06:56:21;;;;;;;2.55;0.90;;;21.90;98.90;;;;;;5103498;27;45355;-62
2023/08/07 06:58:48;;;;;;;3.72;1.23;;;21.90;99.00;;;;;;5104153;27;45321;-61
2023/08/07 07:01:14;;;;;;;3.65;1.10;;;21.90;98.80;;;;;;5109265;27;45181;-61
2023/08/07 07:03:45;;;;;;;3.63;1.30;;;21.90;98.80;;;;;;5107330;27;46355;-62
2023/08/07 07:06:12;;;;;;;4.03;1.05;;;21.90;98.80;;;;;;5103604;27;45399;-62
2023/08/07 07:08:39;;;;;;;1.52;1.02;;;21.90;98.80;;;;;;5112345;27;45335;-62
2023/08/07 07:11:05;;;;;;;4.28;0.90;;;21.90;98.80;;;;;;5101949;27;45089;-62
2023/08/07 07:13:32;;;;;;;1.73;1.10;;;22.00;98.80;;;;;;5102611;27;46497;-62
2023/08/07 07:15:59;;;;;;;2.35;1.17;;;22.00;98.90;;;;;;5102171;27;45160;-61
2023/08/07 07:18:26;;;;;;;2.30;1.13;;;22.00;98.90;;;;;;5104500;27;45338;-62
2023/08/07 07:21:00;;;;;;;2.15;0.77;;;21.90;98.90;;;;;;5110240;27;45265;-62
2023/08/07 07:23:26;;;;;;;2.30;1.00;;;21.90;98.90;;;;;;5102956;27;45438;-61
2023/08/07 07:25:53;;;;;;;1.83;1.15;;;21.90;98.90;;;;;;5111870;27;45169;-61
2023/08/07 07:28:20;;;;;;;2.45;1.10;;;22.00;98.90;;;;;;5103731;27;45223;-62
2023/08/07 07:30:47;;;;;;;1.40;0.93;;;21.90;98.90;;;;;;5100051;27;45341;-62
2023/08/07 07:33:14;;;;;;;3.05;0.85;;;22.00;98.30;;;;;;5100303;27;45220;-62
2023/08/07 07:35:42;;;;;;;3.00;1.40;;;22.00;98.00;;;;;;5101877;27;45127;-62
2023/08/07 07:38:10;;;;;;;2.47;1.10;;;22.00;97.70;;;;;;5102926;27;45291;-62
2023/08/07 07:40:37;;;;;;;1.60;1.00;;;22.10;98.00;;;;;;5102018;27;45149;-62
2023/08/07 07:43:04;;;;;;;3.45;1.17;;;22.10;98.10;;;;;;5102579;27;47802;-62
2023/08/07 07:45:30;;;;;;;4.32;1.20;;;22.10;98.30;;;;;;5099812;27;45240;-61
2023/08/07 07:47:57;;;;;;;2.63;1.38;;;22.10;98.40;;;;;;5101297;27;45286;-62
2023/08/07 07:50:24;;;;;;;1.48;0.90;;;22.10;98.40;;;;;;5101989;27;45274;-62
2023/08/07 07:52:51;;;;;;;1.67;1.00;;;22.10;98.20;;;;;;5097403;27;47361;-62
2023/08/07 07:55:19;;;;;;;4.00;1.83;;;22.00;98.20;;;;;;5099452;27;45132;-62
2023/08/07 07:57:46;;;;;;;1.80;0.90;;;22.10;98.50;;;;;;5099949;27;45078;-62
2023/08/07 08:00:14;;;;;;;1.90;1.10;;;22.10;98.30;;;;;;5111195;27;45418;-62
2023/08/07 08:02:42;;;;;;;2.08;1.00;;;22.10;97.90;;;;;;5101235;27;48560;-62
2023/08/07 08:05:10;;;;;;;1.80;0.82;;;22.10;98.20;;;;;;5102577;27;45200;-61
2023/08/07 08:07:38;;;;;;;2.25;1.10;;;22.10;97.90;;;;;;5103513;27;45189;-62
2023/08/07 08:10:06;;;;;;;2.80;1.20;;;22.10;97.70;;;;;;5101680;27;45093;-62
2023/08/07 08:12:35;;;;;;;2.05;1.00;;;22.10;97.70;;;;;;5102223;27;46049;-62
2023/08/07 08:15:02;;;;;;;2.97;1.35;;;22.10;97.70;;;;;;5102115;27;45210;-62
2023/08/07 08:17:29;;;;;;;2.80;1.27;;;22.10;97.50;;;;;;5112945;27;45238;-62
2023/08/07 08:19:55;;;;;;;1.55;1.08;;;22.10;97.40;;;;;;5102496;27;45423;-62
2023/08/07 08:22:22;;;;;;;2.03;1.13;;;22.10;97.70;;;;;;5101511;27;47264;-62
2023/08/07 08:24:49;;;;;;;3.15;1.13;;;22.10;97.50;;;;;;5102409;27;45122;-60
2023/08/07 08:27:17;;;;;;;3.63;1.02;;;22.10;97.50;;;;;;5102269;27;45142;-61
2023/08/07 08:29:45;;;;;;;3.72;1.20;;;22.10;97.60;;;;;;5097161;27;45137;-62
2023/08/07 08:32:12;;;;;;;1.50;1.00;;;22.10;97.60;;;;;;5102021;27;45459;-61
2023/08/07 08:34:39;;;;;;;2.78;1.20;;;22.10;97.60;;;;;;5100586;27;45077;-62
2023/08/07 08:37:06;;;;;;;1.55;1.00;;;22.10;97.50;;;;;;5101560;27;45219;-62
2023/08/07 08:39:33;;;;;;;1.67;1.10;;;22.10;97.60;;;;;;5097085;27;45375;-62
2023/08/07 08:42:00;;;;;;;1.55;1.10;;;22.10;97.70;;;;;;5092687;27;47176;-63
2023/08/07 08:44:30;;;;;;;28.05;3.33;;;22.10;97.50;;;;;;5092233;27;45229;-61
2023/08/07 08:47:00;;;;;;;18.60;2.63;;;22.10;98.10;;;;;;5105547;27;45169;-62
2023/08/07 08:49:33;;;;;;;13.60;1.92;;;22.10;98.20;;;;;;5102545;27;45453;-62
2023/08/07 08:52:01;;;;;;;12.13;1.80;;;22.10;98.00;;;;;;5103450;27;45292;-62
2023/08/07 08:54:28;;;;;;;6.28;1.77;;;22.10;97.70;;;;;;5100343;27;45231;-63
2023/08/07 08:56:56;;;;;;;7.78;1.50;;;22.10;97.90;;;;;;5102276;27;45343;-62
2023/08/07 08:59:23;;;;;;;4.35;1.30;;;22.10;97.60;;;;;;5107384;27;45281;-62
2023/08/07 09:01:52;;;;;;;11.55;2.28;;;22.00;97.60;;;;;;5106285;27;48627;-62
2023/08/07 09:04:20;;;;;;;5.25;1.05;;;22.00;97.60;;;;;;5105488;27;45119;-62
2023/08/07 09:06:47;;;;;;;3.05;1.20;;;22.00;97.60;;;;;;5110579;27;45243;-62
2023/08/07 09:09:15;;;;;;;4.07;1.20;;;22.00;97.80;;;;;;5103814;27;45252;-62
2023/08/07 09:11:43;;;;;;;2.08;1.00;;;22.00;97.80;;;;;;5111803;27;45227;-62
2023/08/07 09:14:12;;;;;;;3.45;1.13;;;21.90;97.80;;;;;;5106605;27;45083;-62
2023/08/07 09:16:40;;;;;;;1.65;0.80;;;21.90;97.80;;;;;;5105554;27;45205;-62
2023/08/07 09:19:07;;;;;;;2.58;1.05;;;21.90;97.90;;;;;;5105671;27;45296;-61
2023/08/07 09:21:35;;;;;;;2.35;1.02;;;21.90;97.90;;;;;;5104394;27;45298;-62
2023/08/07 09:24:02;;;;;;;5.57;1.20;;;21.90;97.70;;;;;;5106505;27;45141;-62
2023/08/07 09:26:29;;;;;;;2.55;1.30;;;21.90;97.70;;;;;;5105246;27;45333;-62
2023/08/07 09:28:56;;;;;;;4.10;0.90;;;21.90;97.60;;;;;;5105687;27;45111;-61
2023/08/07 09:31:26;;;;;;;4.65;1.20;;;21.90;97.50;;;;;;5103922;27;46220;-62
2023/08/07 09:33:53;;;;;;;2.22;1.00;;;22.00;97.40;;;;;;5104603;27;45264;-62
2023/08/07 09:36:20;;;;;;;1.73;0.93;;;22.00;97.40;;;;;;5105412;27;45172;-62
2023/08/07 09:38:51;;;;;;;3.95;1.23;;;22.00;97.40;;;;;;5103355;27;45224;-63
2023/08/07 09:41:19;;;;;;;29.63;3.85;;;22.00;97.50;;;;;;5107084;27;46371;-62
2023/08/07 09:43:46;;;;;;;15.88;2.25;;;22.00;98.30;;;;;;5103292;27;45392;-62
2023/08/07 09:46:13;;;;;;;15.85;2.55;;;22.00;97.80;;;;;;5107688;27;45219;-62
2023/08/07 09:48:44;;;;;;;12.20;1.83;;;22.00;97.80;;;;;;5108930;27;45189;-63
2023/08/07 09:51:11;;;;;;;6.20;1.20;;;22.00;98.10;;;;;;5103129;27;47152;-62
2023/08/07 09:53:38;;;;;;;5.82;1.27;;;21.90;98.00;;;;;;5102733;27;45205;-62
2023/08/07 09:56:07;;;;;;;9.52;1.45;;;21.90;97.90;;;;;;5110790;27;45138;-62
2023/08/07 09:58:34;;;;;;;3.03;1.23;;;21.90;97.90;;;;;;5103777;27;45266;-62
2023/08/07 10:01:04;;;;;;;2.75;1.20;;;21.90;97.70;;;;;;5102432;27;45226;-62
2023/08/07 10:03:31;;;;;;;3.78;1.10;;;21.90;97.60;;;;;;5102722;27;45328;-62
2023/08/07 10:05:58;;;;;;;3.70;1.45;;;22.00;97.70;;;;;;5104669;27;45232;-63
2023/08/07 10:08:26;;;;;;;4.68;1.40;;;22.00;98.30;;;;;;5104619;27;45189;-61
2023/08/07 10:10:53;;;;;;;11.73;1.30;;;22.00;97.50;;;;;;5102900;27;47262;-61
2023/08/07 10:13:23;;;;;;;12.38;1.75;;;22.00;97.50;;;;;;5104068;27;45848;-62
2023/08/07 10:15:51;;;;;;;4.93;1.20;;;21.90;97.50;;;;;;5103297;27;45229;-62
2023/08/07 10:18:18;;;;;;;5.85;0.93;;;21.90;97.20;;;;;;5103220;27;45054;-62
2023/08/07 10:20:44;;;;;;;3.10;1.20;;;21.90;97.10;;;;;;5103242;27;47222;-62
2023/08/07 10:23:15;;;;;;;1.60;0.80;;;21.90;97.00;;;;;;5103938;27;45205;-61
2023/08/07 10:25:46;;;;;;;2.08;0.90;;;21.90;97.10;;;;;;5104372;27;45163;-62
2023/08/07 10:28:17;;;;;;;3.22;1.25;;;21.90;97.00;;;;;;5104013;27;45174;-62
2023/08/07 10:30:45;;;;;;;2.30;0.90;;;21.90;97.60;;;;;;5102714;27;45201;-62
2023/08/07 10:33:14;;;;;;;2.13;1.02;;;21.90;97.00;;;;;;5104034;27;45401;-61
2023/08/07 10:35:47;;;;;;;4.32;0.98;;;22.00;96.70;;;;;;5102894;27;45231;-62
2023/08/07 10:38:14;;;;;;;7.03;1.20;;;22.00;96.70;;;;;;5103538;27;45343;-62
2023/08/07 10:41:00;;;;;;;2.50;0.98;;;22.00;96.50;;;;;;5103285;27;47434;-62
2023/08/07 10:43:28;;;;;;;3.17;0.90;;;21.90;96.60;;;;;;5101606;27;45110;-62
2023/08/07 10:46:03;;;;;;;1.67;0.70;;;21.90;96.30;;;;;;5104253;27;45158;-62
2023/08/07 10:48:30;;;;;;;2.78;0.80;;;22.00;96.20;;;;;;5097595;27;45248;-62
2023/08/07 10:51:00;;;;;;;1.95;0.70;;;22.00;96.40;;;;;;5103159;27;45326;-62
2023/08/07 10:53:31;;;;;;;3.65;0.93;;;22.00;96.40;;;;;;5107912;27;45231;-63
2023/08/07 10:55:58;;;;;;;4.40;1.10;;;22.00;96.40;;;;;;5104501;27;45188;-62
2023/08/07 10:58:26;;;;;;;1.88;1.00;;;22.10;96.60;;;;;;5103879;27;45454;-62
2023/08/07 11:01:13;;;;;;;3.22;0.95;;;22.10;96.50;;;;;;5102773;27;45178;-62
2023/08/07 11:03:44;;;;;;;1.88;0.85;;;22.20;96.80;;;;;;5095914;27;45289;-62
2023/08/07 11:06:11;;;;;;;0.90;0.80;;;22.20;96.60;;;;;;5104188;27;45166;-62
2023/08/07 11:08:38;;;;;;;2.20;0.70;;;22.10;96.50;;;;;;5103164;27;45184;-62
2023/08/07 11:11:06;;;;;;;2.80;0.90;;;22.10;95.70;;;;;;5102449;27;48231;-62
2023/08/07 11:13:32;;;;;;;3.75;1.17;;;22.10;95.80;;;;;;5103102;27;45102;-62
2023/08/07 11:16:00;;;;;;;4.28;0.90;;;22.10;95.30;;;;;;5102786;27;45141;-62
2023/08/07 11:18:27;;;;;;;1.95;0.80;;;22.10;95.50;;;;;;5104265;27;45148;-62
2023/08/07 11:20:56;;;;;;;1.80;0.80;;;22.10;95.10;;;;;;5103121;27;47522;-62
2023/08/07 11:23:24;;;;;;;1.23;0.73;;;22.10;95.30;;;;;;5108386;27;45342;-63
2023/08/07 11:25:52;;;;;;;4.25;1.00;;;22.00;94.80;;;;;;5109023;27;45283;-62
2023/08/07 11:28:20;;;;;;;2.92;0.93;;;22.00;95.30;;;;;;5104843;27;45404;-62
2023/08/07 11:30:50;;;;;;;1.98;0.93;;;22.00;95.30;;;;;;5103137;27;46510;-61
2023/08/07 11:33:18;;;;;;;2.60;1.13;;;22.00;95.30;;;;;;5106503;27;45303;-62
2023/08/07 11:35:45;;;;;;;4.40;1.25;;;22.10;95.80;;;;;;5108387;27;45295;-61
2023/08/07 11:38:13;;;;;;;2.00;0.80;;;22.10;95.40;;;;;;5103453;27;45242;-61
2023/08/07 11:40:40;;;;;;;2.65;0.82;;;22.10;95.50;;;;;;5108005;27;45259;-62
2023/08/07 11:43:07;;;;;;;6.25;1.27;;;22.10;95.60;;;;;;5111296;27;45921;-61
2023/08/07 11:45:34;;;;;;;3.67;1.10;;;22.10;95.70;;;;;;5100729;27;45117;-62
2023/08/07 11:48:02;;;;;;;2.95;0.93;;;22.10;95.30;;;;;;5110569;27;45398;-62
2023/08/07 11:50:29;;;;;;;2.40;1.05;;;22.10;94.90;;;;;;5103075;27;46878;-61
2023/08/07 11:53:00;;;;;;;2.08;0.65;;;22.10;94.90;;;;;;5102651;27;45259;-62
2023/08/07 11:55:30;;;;;;;2.00;1.08;;;22.00;94.80;;;;;;5102849;27;45134;-62
2023/08/07 11:57:56;;;;;;;1.77;1.00;;;22.00;95.30;;;;;;5102834;27;45419;-63
2023/08/07 12:00:27;;;;;;;3.88;1.20;;;22.00;95.30;;;;;;5102092;27;47445;-62
2023/08/07 12:02:54;;;;;;;2.13;1.00;;;22.00;95.30;;;;;;5101751;27;46710;-62
2023/08/07 12:05:21;;;;;;;1.75;0.90;;;22.00;94.80;;;;;;5102751;27;45157;-62
2023/08/07 12:07:48;;;;;;;1.95;1.05;;;22.00;95.20;;;;;;5103966;27;45377;-63
2023/08/07 12:10:15;;;;;;;1.45;0.80;;;22.00;94.80;;;;;;5106137;27;47328;-62
2023/08/07 12:12:44;;;;;;;1.67;0.90;;;22.00;94.70;;;;;;5102157;27;45142;-62
2023/08/07 12:15:11;;;;;;;2.05;1.00;;;22.00;94.50;;;;;;5102704;27;45247;-62
2023/08/07 12:17:38;;;;;;;5.32;0.98;;;22.00;94.90;;;;;;5102883;27;45261;-61
2023/08/07 12:20:07;;;;;;;2.42;0.95;;;22.00;94.50;;;;;;5103486;27;46314;-62
2023/08/07 12:22:36;;;;;;;3.40;0.80;;;22.00;94.80;;;;;;5108787;27;45184;-61
2023/08/07 12:25:03;;;;;;;2.60;0.93;;;22.00;94.80;;;;;;5115465;27;45168;-62
2023/08/07 12:27:30;;;;;;;2.03;0.77;;;22.00;94.80;;;;;;5106719;27;45138;-61
2023/08/07 12:29:58;;;;;;;2.38;0.80;;;22.10;94.80;;;;;;5105033;27;47010;-62
2023/08/07 12:32:25;;;;;;;3.17;0.90;;;22.10;94.80;;;;;;5109103;27;45303;-62
2023/08/07 12:34:53;;;;;;;2.85;0.90;;;22.00;94.90;;;;;;5111422;27;45402;-62
2023/08/07 12:37:20;;;;;;;1.77;0.90;;;22.00;95.40;;;;;;5104384;27;45149;-63
2023/08/07 12:39:47;;;;;;;1.70;0.85;;;22.00;95.20;;;;;;5100859;27;45204;-62
2023/08/07 12:42:13;;;;;;;3.05;1.00;;;22.00;95.90;;;;;;5113914;27;45167;-62
2023/08/07 12:44:40;;;;;;;2.08;0.80;;;22.00;95.70;;;;;;5106074;27;45253;-62
2023/08/07 12:47:08;;;;;;;1.27;0.80;;;22.00;95.70;;;;;;5106422;27;45281;-62